Time;durP1;ratioP1;P1;durP2;ratioP2;P2;SDS_P1;SDS_P2;PMS_P1;PMS_P2;Temp;Humidity;BMP_temperature;BMP_pressure;BME280_temperature;BME280_humidity;BME280_pressure;Samples;Min_cycle;Max_cycle;Signal;HPM_P1;HPM_P2
2022/09/21 00:01:17;;;;;;;5.65;4.07;;;;;;;;;;2375374;56;21046;-77
2022/09/21 00:03:45;;;;;;;9.05;4.25;;;;;;;;;;2628390;52;21122;-76
2022/09/21 00:06:13;;;;;;;6.57;3.55;;;;;;;;;;2628149;52;21047;-76
2022/09/21 00:08:40;;;;;;;5.50;3.72;;;;;;;;;;2628577;52;21066;-77
2022/09/21 00:11:08;;;;;;;7.55;4.07;;;;;;;;;;2628488;52;21047;-76
2022/09/21 00:13:36;;;;;;;6.93;3.95;;;;;;;;;;2375293;56;21530;-77
2022/09/21 00:16:06;;;;;;;7.75;3.75;;;;;;;;;;2373977;56;21134;-75
2022/09/21 00:18:34;;;;;;;7.10;3.78;;;;;;;;;;2373436;56;21552;-77
2022/09/21 00:21:01;;;;;;;8.25;3.72;;;;;;;;;;2628579;52;21234;-77
2022/09/21 00:23:29;;;;;;;6.15;3.60;;;;;;;;;;2375362;56;21047;-77
2022/09/21 00:26:04;;;;;;;6.15;3.70;;;;;;;;;;2374475;56;21613;-77
2022/09/21 00:28:31;;;;;;;5.78;3.28;;;;;;;;;;2375651;56;21058;-77
2022/09/21 00:31:02;;;;;;;5.05;3.25;;;;;;;;;;2628819;52;21411;-78
2022/09/21 00:33:29;;;;;;;5.43;3.50;;;;;;;;;;2375131;56;21042;-76
2022/09/21 00:35:56;;;;;;;5.97;3.40;;;;;;;;;;2372914;56;21023;-77
2022/09/21 00:38:23;;;;;;;4.30;3.08;;;;;;;;;;2374929;56;21058;-76
2022/09/21 00:40:50;;;;;;;4.15;2.97;;;;;;;;;;2375813;56;21182;-77
2022/09/21 00:43:18;;;;;;;5.15;3.35;;;;;;;;;;2628257;52;21046;-75
2022/09/21 00:45:47;;;;;;;6.32;3.30;;;;;;;;;;2374425;56;21050;-75
2022/09/21 00:48:14;;;;;;;7.70;3.17;;;;;;;;;;2628621;52;21051;-77
2022/09/21 00:50:44;;;;;;;3.60;3.00;;;;;;;;;;2626845;52;21589;-77
2022/09/21 00:53:11;;;;;;;5.28;3.28;;;;;;;;;;2372810;56;21043;-77
2022/09/21 00:55:41;;;;;;;4.57;2.95;;;;;;;;;;2626835;52;21126;-76
2022/09/21 00:58:09;;;;;;;3.80;2.53;;;;;;;;;;2373628;56;21521;-77
2022/09/21 01:00:37;;;;;;;3.95;2.75;;;;;;;;;;2374432;56;21039;-75
2022/09/21 01:03:04;;;;;;;4.47;2.90;;;;;;;;;;2374549;56;21031;-77
2022/09/21 01:05:32;;;;;;;2.97;2.45;;;;;;;;;;2372565;56;21122;-77
2022/09/21 01:08:01;;;;;;;4.18;2.85;;;;;;;;;;2627865;52;21114;-76
2022/09/21 01:10:30;;;;;;;5.45;3.50;;;;;;;;;;2372151;56;21661;-77
2022/09/21 01:13:04;;;;;;;6.35;2.90;;;;;;;;;;2374117;56;21032;-77
2022/09/21 01:15:38;;;;;;;4.22;2.78;;;;;;;;;;2373827;56;21078;-77
2022/09/21 01:18:10;;;;;;;2.72;2.22;;;;;;;;;;2627618;52;21023;-76
2022/09/21 01:20:58;;;;;;;5.25;2.60;;;;;;;;;;2373753;56;22401;-77
2022/09/21 01:23:41;;;;;;;3.62;2.65;;;;;;;;;;2373177;56;21062;-77
2022/09/21 01:26:13;;;;;;;6.85;3.40;;;;;;;;;;2374798;56;21757;-78
2022/09/21 01:28:58;;;;;;;6.85;2.85;;;;;;;;;;2373779;56;21098;-79
2022/09/21 01:31:27;;;;;;;3.47;2.30;;;;;;;;;;2374189;56;21644;-76
2022/09/21 01:33:58;;;;;;;6.45;2.17;;;;;;;;;;2373494;56;21027;-77
2022/09/21 01:36:27;;;;;;;3.35;2.35;;;;;;;;;;2373135;56;21095;-75
2022/09/21 01:38:53;;;;;;;3.00;2.20;;;;;;;;;;2622129;51;21498;31
2022/09/21 01:41:24;;;;;;;2.70;2.30;;;;;;;;;;2303556;58;21538;-74
2022/09/21 01:43:54;;;;;;;3.12;1.98;;;;;;;;;;2337895;54;21129;-77
2022/09/21 01:46:22;;;;;;;4.05;2.50;;;;;;;;;;2331980;53;21089;-75
2022/09/21 01:48:52;;;;;;;3.40;2.30;;;;;;;;;;2331463;57;21046;-77
2022/09/21 01:51:20;;;;;;;4.15;2.12;;;;;;;;;;2331836;57;21120;-77
2022/09/21 01:53:50;;;;;;;4.47;2.60;;;;;;;;;;2332236;57;21050;-77
2022/09/21 01:56:20;;;;;;;8.10;2.20;;;;;;;;;;2331192;57;21061;-74
2022/09/21 01:58:50;;;;;;;4.15;2.62;;;;;;;;;;2331968;57;21081;-77
2022/09/21 02:01:19;;;;;;;2.70;2.22;;;;;;;;;;2337411;53;21065;-75
2022/09/21 02:03:48;;;;;;;6.12;2.70;;;;;;;;;;2331374;57;21053;-75
2022/09/21 02:06:16;;;;;;;5.22;2.40;;;;;;;;;;2331748;57;21070;-77
2022/09/21 02:08:44;;;;;;;5.20;2.42;;;;;;;;;;2332051;56;21177;-77
2022/09/21 02:11:12;;;;;;;7.53;2.53;;;;;;;;;;2379618;53;21057;-76
2022/09/21 02:13:40;;;;;;;4.50;2.47;;;;;;;;;;2331253;57;21141;-74
2022/09/21 02:16:13;;;;;;;3.05;2.10;;;;;;;;;;2418001;53;21745;-77
2022/09/21 02:18:48;;;;;;;6.85;2.08;;;;;;;;;;2332204;57;21204;-77
2022/09/21 02:21:19;;;;;;;4.97;1.83;;;;;;;;;;2331534;57;21128;-77
2022/09/21 02:23:50;;;;;;;2.95;1.83;;;;;;;;;;2332132;57;21124;-74
2022/09/21 02:26:20;;;;;;;4.28;2.70;;;;;;;;;;2331739;57;21050;-76
2022/09/21 02:28:50;;;;;;;4.05;2.42;;;;;;;;;;2331322;57;21042;-77
2022/09/21 02:31:22;;;;;;;3.58;2.05;;;;;;;;;;2331193;57;21042;-77
2022/09/21 02:33:56;;;;;;;3.90;2.05;;;;;;;;;;2332365;57;21053;-77
2022/09/21 02:36:28;;;;;;;5.53;2.03;;;;;;;;;;2438813;53;21114;-76
2022/09/21 02:39:02;;;;;;;3.42;2.37;;;;;;;;;;2402001;53;21057;-77
2022/09/21 02:41:29;;;;;;;;;;;;;;;;;;2335599;57;21053;-77
2022/09/21 02:43:59;;;;;;;3.60;2.10;;;;;;;;;;2331665;57;20138;-77
2022/09/21 02:46:29;;;;;;;3.37;2.85;;;;;;;;;;2331465;57;21041;-77
2022/09/21 02:48:58;;;;;;;2.42;1.80;;;;;;;;;;2378130;53;21113;-77
2022/09/21 02:51:28;;;;;;;3.47;2.22;;;;;;;;;;2332419;57;21321;-77
2022/09/21 02:53:55;;;;;;;4.10;2.20;;;;;;;;;;2332109;57;21049;-77
2022/09/21 02:56:23;;;;;;;3.83;1.98;;;;;;;;;;2331465;57;21049;-77
2022/09/21 02:58:53;;;;;;;3.15;1.80;;;;;;;;;;2332415;57;21072;-77
2022/09/21 03:01:20;;;;;;;2.80;1.85;;;;;;;;;;2332376;57;21576;-76
2022/09/21 03:03:48;;;;;;;4.12;2.25;;;;;;;;;;2385323;53;21117;-77
2022/09/21 03:06:15;;;;;;;2.40;1.98;;;;;;;;;;2330337;57;21666;-77
2022/09/21 03:08:42;;;;;;;2.53;1.80;;;;;;;;;;2331988;57;21073;-75
2022/09/21 03:11:10;;;;;;;4.50;2.30;;;;;;;;;;2332136;57;21077;-77
2022/09/21 03:13:38;;;;;;;4.25;2.00;;;;;;;;;;2332522;57;21240;-75
2022/09/21 03:16:06;;;;;;;2.17;1.75;;;;;;;;;;2331775;57;21129;-77
2022/09/21 03:18:34;;;;;;;3.67;2.03;;;;;;;;;;2330889;57;21669;-77
2022/09/21 03:21:02;;;;;;;7.70;2.25;;;;;;;;;;2332102;57;21522;-77
2022/09/21 03:23:29;;;;;;;3.55;2.12;;;;;;;;;;2331820;57;21049;-77
2022/09/21 03:25:56;;;;;;;3.78;1.98;;;;;;;;;;2336464;53;21073;-77
2022/09/21 03:28:24;;;;;;;4.62;1.80;;;;;;;;;;2332369;57;21112;-77
2022/09/21 03:30:51;;;;;;;3.05;1.83;;;;;;;;;;2332425;57;21061;-77
2022/09/21 03:33:19;;;;;;;4.05;1.75;;;;;;;;;;2331582;57;21054;-77
2022/09/21 03:35:48;;;;;;;5.28;2.20;;;;;;;;;;2330499;57;21547;-77
2022/09/21 03:38:15;;;;;;;3.97;1.80;;;;;;;;;;2331626;57;21355;-77
2022/09/21 03:40:45;;;;;;;4.57;2.10;;;;;;;;;;2332309;57;21057;-75
2022/09/21 03:43:12;;;;;;;1.80;1.70;;;;;;;;;;2332104;57;21085;-77
2022/09/21 03:45:41;;;;;;;3.20;1.85;;;;;;;;;;2331725;57;21108;-77
2022/09/21 03:48:08;;;;;;;6.25;2.22;;;;;;;;;;2331136;57;21116;-77
2022/09/21 03:50:35;;;;;;;3.42;1.90;;;;;;;;;;2470901;53;22181;-77
2022/09/21 03:53:03;;;;;;;4.22;1.90;;;;;;;;;;2353551;53;21599;-77
2022/09/21 03:55:30;;;;;;;4.45;1.95;;;;;;;;;;2363728;53;21053;-77
2022/09/21 03:57:57;;;;;;;2.50;1.55;;;;;;;;;;2331898;57;21081;-77
2022/09/21 04:00:24;;;;;;;1.70;1.58;;;;;;;;;;2331919;57;21380;-77
2022/09/21 04:02:52;;;;;;;3.15;1.87;;;;;;;;;;2332058;57;21070;-75
2022/09/21 04:05:20;;;;;;;2.50;2.00;;;;;;;;;;2330723;57;21065;-78
2022/09/21 04:07:47;;;;;;;5.80;2.05;;;;;;;;;;2332126;57;21058;-78
2022/09/21 04:10:16;;;;;;;2.25;1.75;;;;;;;;;;2332342;57;21046;-76
2022/09/21 04:12:44;;;;;;;2.83;2.10;;;;;;;;;;2330943;57;21057;-76
2022/09/21 04:15:12;;;;;;;4.20;1.85;;;;;;;;;;2331451;57;21061;-77
2022/09/21 04:17:39;;;;;;;2.75;1.92;;;;;;;;;;2331478;57;21069;-75
2022/09/21 04:20:08;;;;;;;2.28;1.90;;;;;;;;;;2413969;53;21121;-77
2022/09/21 04:22:36;;;;;;;2.87;1.70;;;;;;;;;;2331203;57;21065;-76
2022/09/21 04:25:03;;;;;;;4.70;2.10;;;;;;;;;;2332007;57;21105;-76
2022/09/21 04:27:31;;;;;;;4.18;2.08;;;;;;;;;;2331591;57;21148;-77
2022/09/21 04:29:58;;;;;;;4.72;2.10;;;;;;;;;;2348077;53;21566;-77
2022/09/21 04:32:25;;;;;;;5.75;2.40;;;;;;;;;;2331733;57;21073;-74
2022/09/21 04:34:52;;;;;;;3.28;2.12;;;;;;;;;;2331276;57;21124;-78
2022/09/21 04:37:20;;;;;;;3.85;2.30;;;;;;;;;;2449177;53;21057;-76
2022/09/21 04:39:47;;;;;;;3.53;2.40;;;;;;;;;;2332405;57;21058;-77
2022/09/21 04:42:14;;;;;;;4.80;2.35;;;;;;;;;;2331734;57;21045;-76
2022/09/21 04:44:41;;;;;;;4.97;2.70;;;;;;;;;;2331888;57;21080;-75
2022/09/21 04:47:08;;;;;;;4.00;2.60;;;;;;;;;;2332184;57;21097;-75
2022/09/21 04:49:37;;;;;;;5.45;2.75;;;;;;;;;;2417119;53;21087;-78
2022/09/21 04:52:05;;;;;;;3.53;2.30;;;;;;;;;;2331679;57;21069;-77
2022/09/21 04:54:32;;;;;;;2.70;2.03;;;;;;;;;;2398535;53;21057;-77
2022/09/21 04:56:59;;;;;;;5.40;2.27;;;;;;;;;;2333149;53;21045;-77
2022/09/21 04:59:26;;;;;;;5.40;2.20;;;;;;;;;;2372045;53;21112;-77
2022/09/21 05:01:53;;;;;;;4.00;2.42;;;;;;;;;;2331752;57;21113;-75
2022/09/21 05:04:21;;;;;;;4.47;2.58;;;;;;;;;;2332249;57;21128;-77
2022/09/21 05:06:48;;;;;;;3.45;2.33;;;;;;;;;;2331410;57;21148;-76
2022/09/21 05:12:02;;;;;;;7.07;2.53;;;;;;;;;;2576432;53;21065;-76
2022/09/21 05:14:29;;;;;;;4.50;2.10;;;;;;;;;;2331603;57;21129;-77
2022/09/21 05:16:56;;;;;;;3.55;2.10;;;;;;;;;;2330582;57;22317;-77
2022/09/21 05:19:23;;;;;;;3.30;2.20;;;;;;;;;;2542898;53;21133;-76
2022/09/21 05:21:51;;;;;;;4.07;2.22;;;;;;;;;;2332035;57;21121;-74
2022/09/21 05:24:18;;;;;;;5.10;2.25;;;;;;;;;;2331672;57;21133;-76
2022/09/21 05:26:45;;;;;;;3.47;2.65;;;;;;;;;;2329899;57;21089;-73
2022/09/21 05:29:13;;;;;;;5.25;2.35;;;;;;;;;;2331904;57;21062;-76
2022/09/21 05:31:43;;;;;;;3.67;2.28;;;;;;;;;;2332322;57;21699;-74
2022/09/21 05:34:19;;;;;;;4.57;2.72;;;;;;;;;;2331005;57;21152;-76
2022/09/21 05:36:50;;;;;;;5.25;2.87;;;;;;;;;;2331323;57;21260;-77
2022/09/21 05:39:17;;;;;;;5.37;2.40;;;;;;;;;;2331943;57;21066;-76
2022/09/21 05:41:45;;;;;;;3.90;2.30;;;;;;;;;;2332010;57;21104;-76
2022/09/21 05:44:14;;;;;;;5.40;2.47;;;;;;;;;;2332001;57;21093;-76
2022/09/21 05:46:42;;;;;;;4.25;2.40;;;;;;;;;;2331432;57;21037;-76
2022/09/21 05:49:14;;;;;;;4.32;2.50;;;;;;;;;;2345837;53;21152;-77
2022/09/21 05:51:47;;;;;;;6.10;3.00;;;;;;;;;;2332095;57;21116;-76
2022/09/21 05:54:19;;;;;;;6.55;2.92;;;;;;;;;;2575159;53;21117;-73
2022/09/21 05:56:49;;;;;;;6.18;3.47;;;;;;;;;;2330425;57;21120;-76
2022/09/21 05:59:29;;;;;;;7.03;3.20;;;;;;;;;;2331935;57;21129;-77
2022/09/21 06:01:59;;;;;;;7.05;3.90;;;;;;;;;;2330444;57;21057;-79
2022/09/21 06:04:27;;;;;;;9.30;4.50;;;;;;;;;;2332125;57;21053;-76
2022/09/21 06:06:54;;;;;;;7.20;4.10;;;;;;;;;;2330992;57;21040;-76
2022/09/21 06:09:21;;;;;;;5.78;3.65;;;;;;;;;;2330265;57;21125;-76
2022/09/21 06:11:48;;;;;;;5.60;3.90;;;;;;;;;;2332037;57;22253;-76
2022/09/21 06:14:15;;;;;;;9.20;3.80;;;;;;;;;;2331934;57;21144;-76
2022/09/21 06:16:43;;;;;;;6.75;3.62;;;;;;;;;;2332036;57;21124;-76
2022/09/21 06:19:12;;;;;;;6.15;4.40;;;;;;;;;;2330565;57;21045;-76
2022/09/21 06:21:39;;;;;;;8.13;4.93;;;;;;;;;;2331385;57;21047;-76
2022/09/21 06:24:06;;;;;;;5.72;4.20;;;;;;;;;;2426974;53;21061;-76
2022/09/21 06:26:33;;;;;;;5.93;3.90;;;;;;;;;;2330569;57;21137;-76
2022/09/21 06:29:00;;;;;;;8.88;4.40;;;;;;;;;;2332204;57;21042;-76
2022/09/21 06:31:28;;;;;;;7.03;4.37;;;;;;;;;;2332453;57;21398;-77
2022/09/21 06:33:55;;;;;;;6.25;4.22;;;;;;;;;;2332348;57;21069;-76
2022/09/21 06:36:22;;;;;;;6.10;4.18;;;;;;;;;;2391367;53;21077;-76
2022/09/21 06:38:49;;;;;;;5.35;3.83;;;;;;;;;;2328038;57;21058;-74
2022/09/21 06:41:17;;;;;;;6.32;3.28;;;;;;;;;;2329353;57;21140;-76
2022/09/21 06:43:44;;;;;;;6.70;4.50;;;;;;;;;;2331397;57;21533;-73
2022/09/21 06:46:11;;;;;;;7.32;4.65;;;;;;;;;;2327335;57;21057;-76
2022/09/21 06:48:38;;;;;;;11.02;3.78;;;;;;;;;;2329623;57;21062;-73
2022/09/21 06:51:06;;;;;;;6.07;3.62;;;;;;;;;;2330433;57;21582;-76
2022/09/21 06:53:34;;;;;;;4.75;3.20;;;;;;;;;;2330532;57;21683;-76
2022/09/21 06:56:02;;;;;;;8.27;4.10;;;;;;;;;;2334705;53;21042;-74
2022/09/21 06:58:30;;;;;;;6.62;3.55;;;;;;;;;;2329890;57;21061;-73
2022/09/21 07:00:58;;;;;;;6.53;4.15;;;;;;;;;;2329973;57;21133;-75
2022/09/21 07:03:25;;;;;;;8.55;4.55;;;;;;;;;;2348431;53;21616;-74
2022/09/21 07:05:52;;;;;;;10.15;4.10;;;;;;;;;;2334859;53;21089;-75
2022/09/21 07:08:20;;;;;;;8.35;5.22;;;;;;;;;;2329437;57;21208;-73
2022/09/21 07:10:47;;;;;;;6.55;5.22;;;;;;;;;;2329948;57;21141;-76
2022/09/21 07:13:16;;;;;;;11.95;4.45;;;;;;;;;;2330638;57;21037;-77
2022/09/21 07:15:43;;;;;;;12.32;4.70;;;;;;;;;;2329572;57;21068;-73
2022/09/21 07:18:11;;;;;;;5.62;4.15;;;;;;;;;;2330748;57;21069;-77
2022/09/21 07:20:39;;;;;;;6.30;3.80;;;;;;;;;;2330455;57;22125;-76
2022/09/21 07:23:10;;;;;;;6.85;4.15;;;;;;;;;;2417733;53;21488;-73
2022/09/21 07:25:38;;;;;;;13.73;5.12;;;;;;;;;;2509411;53;21092;-76
2022/09/21 07:28:05;;;;;;;7.80;4.10;;;;;;;;;;2349462;53;21061;-78
2022/09/21 07:30:33;;;;;;;6.50;4.15;;;;;;;;;;2329892;57;21204;-78
2022/09/21 07:33:00;;;;;;;8.07;3.53;;;;;;;;;;2331216;57;21065;-76
2022/09/21 07:35:27;;;;;;;6.85;3.28;;;;;;;;;;2329657;57;21065;-73
2022/09/21 07:37:57;;;;;;;6.37;2.95;;;;;;;;;;2331459;57;21069;-76
2022/09/21 07:40:25;;;;;;;7.90;3.33;;;;;;;;;;2414243;53;21080;-77
2022/09/21 07:42:52;;;;;;;5.15;2.80;;;;;;;;;;2511039;55;21065;-75
2022/09/21 07:45:19;;;;;;;5.87;3.60;;;;;;;;;;2277440;59;21140;-76
2022/09/21 07:47:46;;;;;;;3.97;2.85;;;;;;;;;;2277234;59;21081;-75
2022/09/21 07:50:13;;;;;;;6.22;3.67;;;;;;;;;;2510213;55;21057;-75
2022/09/21 07:52:41;;;;;;;8.88;4.12;;;;;;;;;;2510196;55;21702;-75
2022/09/21 07:55:08;;;;;;;4.95;2.72;;;;;;;;;;2278012;59;21133;-75
2022/09/21 08:00:21;;;;;;;3.83;2.62;;;;;;;;;;2278396;59;21028;-77
2022/09/21 08:02:48;;;;;;;4.47;2.78;;;;;;;;;;2510537;55;21081;-77
2022/09/21 08:05:15;;;;;;;3.10;2.22;;;;;;;;;;2278817;59;21113;-76
2022/09/21 08:07:43;;;;;;;3.25;1.92;;;;;;;;;;2278931;59;21141;-76
2022/09/21 08:10:10;;;;;;;3.90;2.30;;;;;;;;;;2279558;59;21678;-78
2022/09/21 08:12:37;;;;;;;4.22;2.22;;;;;;;;;;2278807;59;21624;-77
2022/09/21 08:15:06;;;;;;;7.60;2.67;;;;;;;;;;2277572;59;21140;-76
2022/09/21 08:17:33;;;;;;;3.50;2.28;;;;;;;;;;2279142;59;21134;-76
2022/09/21 08:20:02;;;;;;;2.87;2.37;;;;;;;;;;2279225;59;21591;-77
2022/09/21 08:22:29;;;;;;;3.42;2.40;;;;;;;;;;2279218;59;21133;-77
2022/09/21 08:24:57;;;;;;;4.55;2.47;;;;;;;;;;2279147;59;21072;-76
2022/09/21 08:27:24;;;;;;;3.03;2.67;;;;;;;;;;2278960;59;21128;-76
2022/09/21 08:29:51;;;;;;;4.30;2.80;;;;;;;;;;2278412;59;21555;-76
2022/09/21 08:32:19;;;;;;;3.62;2.65;;;;;;;;;;2277897;59;21575;-75
2022/09/21 08:34:46;;;;;;;11.90;2.60;;;;;;;;;;2511041;55;21121;-77
2022/09/21 08:37:14;;;;;;;6.50;2.58;;;;;;;;;;2278826;59;21061;-75
2022/09/21 08:39:41;;;;;;;2.62;2.22;;;;;;;;;;2511791;54;21069;-76
2022/09/21 08:42:16;;;;;;;3.60;1.90;;;;;;;;;;2279424;59;21575;-76
2022/09/21 08:44:47;;;;;;;3.37;1.50;;;;;;;;;;2279274;59;21072;-76
2022/09/21 08:47:15;;;;;;;2.60;1.62;;;;;;;;;;2277321;59;21096;-77
2022/09/21 08:49:45;;;;;;;2.60;1.70;;;;;;;;;;2512348;55;21069;-77
2022/09/21 08:52:15;;;;;;;4.22;1.62;;;;;;;;;;2278905;59;21057;-77
2022/09/21 08:54:47;;;;;;;3.67;1.60;;;;;;;;;;2279403;59;21512;-75
2022/09/21 08:57:15;;;;;;;2.60;1.08;;;;;;;;;;2511410;55;21125;-75
2022/09/21 08:59:44;;;;;;;1.50;1.02;;;;;;;;;;2279595;59;21061;-75
2022/09/21 09:02:28;;;;;;;1.62;1.00;;;;;;;;;;2279408;59;21053;-75
2022/09/21 09:05:00;;;;;;;2.85;1.58;;;;;;;;;;2277280;59;21120;-76
2022/09/21 09:07:35;;;;;;;0.88;0.85;;;;;;;;;;2278489;59;21112;-76
2022/09/21 09:10:13;;;;;;;1.65;0.70;;;;;;;;;;2278931;59;21061;-77
2022/09/21 09:12:46;;;;;;;1.17;1.08;;;;;;;;;;2279446;59;21057;-77
2022/09/21 09:15:28;;;;;;;1.37;1.12;;;;;;;;;;2279651;59;21145;-75
2022/09/21 09:18:00;;;;;;;1.15;1.00;;;;;;;;;;2279193;59;21056;-76
2022/09/21 09:20:29;;;;;;;1.95;1.00;;;;;;;;;;2277951;59;21595;-75
2022/09/21 09:23:02;;;;;;;1.30;1.10;;;;;;;;;;2511607;55;21085;-76
2022/09/21 09:25:33;;;;;;;1.33;1.02;;;;;;;;;;2278663;59;21137;-75
2022/09/21 09:28:05;;;;;;;1.10;0.90;;;;;;;;;;2279514;59;21045;-76
2022/09/21 09:30:34;;;;;;;1.20;1.10;;;;;;;;;;2279628;59;21113;-76
2022/09/21 09:33:03;;;;;;;1.85;1.00;;;;;;;;;;2279236;59;21073;-76
2022/09/21 09:35:32;;;;;;;1.55;1.10;;;;;;;;;;2278754;59;21132;-76
2022/09/21 09:38:02;;;;;;;1.15;0.88;;;;;;;;;;2277511;59;21045;-78
2022/09/21 09:40:52;;;;;;;1.30;1.12;;;;;;;;;;2278501;59;21662;-75
2022/09/21 09:43:26;;;;;;;2.62;0.85;;;;;;;;;;2511708;55;21112;-76
2022/09/21 09:45:58;;;;;;;1.48;0.90;;;;;;;;;;2279085;59;21046;-76
2022/09/21 09:48:32;;;;;;;3.60;0.80;;;;;;;;;;2279227;59;21057;-76
2022/09/21 09:50:59;;;;;;;3.22;0.80;;;;;;;;;;2279547;59;21060;-76
2022/09/21 09:53:27;;;;;;;0.93;0.75;;;;;;;;;;2511524;55;21705;-77
2022/09/21 09:55:55;;;;;;;1.10;0.75;;;;;;;;;;2509552;55;21057;-77
2022/09/21 09:58:24;;;;;;;1.30;0.85;;;;;;;;;;2279408;59;21113;-75
2022/09/21 10:00:52;;;;;;;3.67;1.00;;;;;;;;;;2279379;59;21547;-75
2022/09/21 10:03:22;;;;;;;1.60;0.85;;;;;;;;;;2279253;59;21642;-76
2022/09/21 10:05:50;;;;;;;1.83;0.85;;;;;;;;;;2278976;59;21065;-77
2022/09/21 10:08:28;;;;;;;1.92;1.00;;;;;;;;;;2277352;59;21137;-76
2022/09/21 10:10:56;;;;;;;1.62;0.98;;;;;;;;;;2279423;59;21556;-75
2022/09/21 10:13:26;;;;;;;0.98;0.80;;;;;;;;;;2510989;55;21073;-81
2022/09/21 10:15:55;;;;;;;3.90;0.90;;;;;;;;;;2513401;55;21045;-83
2022/09/21 10:18:24;;;;;;;1.25;0.80;;;;;;;;;;2513685;55;21049;-83
2022/09/21 10:20:55;;;;;;;3.22;1.20;;;;;;;;;;2280857;59;21072;-81
2022/09/21 10:23:22;;;;;;;2.45;0.80;;;;;;;;;;2279733;59;21093;-79
2022/09/21 10:26:00;;;;;;;0.73;0.70;;;;;;;;;;2279531;59;21128;-80
2022/09/21 10:28:28;;;;;;;1.90;0.90;;;;;;;;;;2512079;55;21129;-79
2022/09/21 10:31:13;;;;;;;2.95;0.90;;;;;;;;;;2279743;59;21132;-83
2022/09/21 10:33:51;;;;;;;2.55;0.88;;;;;;;;;;2511482;55;21109;-79
2022/09/21 10:36:30;;;;;;;0.80;0.68;;;;;;;;;;2280214;59;21144;-81
2022/09/21 10:39:09;;;;;;;1.15;0.73;;;;;;;;;;2279047;59;21595;-79
2022/09/21 10:41:37;;;;;;;0.50;0.50;;;;;;;;;;2278573;59;21830;-80
2022/09/21 10:44:11;;;;;;;1.05;0.85;;;;;;;;;;2278438;59;21140;-80
2022/09/21 10:46:38;;;;;;;1.23;0.70;;;;;;;;;;2278626;59;22156;-81
2022/09/21 10:49:13;;;;;;;0.40;0.40;;;;;;;;;;2278176;59;21153;-79
2022/09/21 10:51:40;;;;;;;0.60;0.40;;;;;;;;;;2279012;59;21077;-80
2022/09/21 10:54:10;;;;;;;1.33;0.70;;;;;;;;;;2278673;59;21081;-79
2022/09/21 10:56:40;;;;;;;3.30;0.80;;;;;;;;;;2278624;59;21079;-82
2022/09/21 10:59:11;;;;;;;2.15;0.68;;;;;;;;;;2280919;59;21080;-81
2022/09/21 11:01:44;;;;;;;3.12;0.90;;;;;;;;;;2514499;55;21524;-81
2022/09/21 11:04:13;;;;;;;1.00;0.62;;;;;;;;;;2515736;55;21113;-82
2022/09/21 11:06:42;;;;;;;1.23;0.50;;;;;;;;;;2282489;59;21069;-82
2022/09/21 11:09:13;;;;;;;1.77;0.47;;;;;;;;;;2515091;55;22296;-81
2022/09/21 11:11:46;;;;;;;0.77;0.50;;;;;;;;;;2279094;59;21136;-79
2022/09/21 11:14:17;;;;;;;0.82;0.47;;;;;;;;;;2277432;59;21057;-80
2022/09/21 11:16:47;;;;;;;1.75;0.65;;;;;;;;;;2509986;55;21049;-82
2022/09/21 11:19:20;;;;;;;2.12;0.70;;;;;;;;;;2277346;59;21148;-82
2022/09/21 11:21:52;;;;;;;2.05;0.57;;;;;;;;;;2278478;59;21587;-79
2022/09/21 11:24:23;;;;;;;1.55;0.57;;;;;;;;;;2277776;59;21149;-80
2022/09/21 11:26:53;;;;;;;0.70;0.50;;;;;;;;;;2278453;59;21599;-80
2022/09/21 11:29:25;;;;;;;0.65;0.40;;;;;;;;;;2278720;59;21579;-81
2022/09/21 11:32:02;;;;;;;0.30;0.30;;;;;;;;;;2278999;59;21057;-80
2022/09/21 11:34:36;;;;;;;0.75;0.50;;;;;;;;;;2278577;59;21164;-79
2022/09/21 11:37:09;;;;;;;0.40;0.40;;;;;;;;;;2278726;59;21077;-80
2022/09/21 11:39:41;;;;;;;0.47;0.47;;;;;;;;;;2276608;59;21883;-80
2022/09/21 11:42:15;;;;;;;0.40;0.32;;;;;;;;;;2509580;54;21116;-80
2022/09/21 11:44:41;;;;;;;;;;;;;;;;;;2514916;55;21129;-81
2022/09/21 11:47:15;;;;;;;0.40;0.40;;;;;;;;;;2278660;59;20068;-80
2022/09/21 11:49:55;;;;;;;1.00;0.30;;;;;;;;;;2278380;59;21061;-80
2022/09/21 11:52:32;;;;;;;0.55;0.40;;;;;;;;;;2510618;55;21065;-80
2022/09/21 11:55:05;;;;;;;1.15;0.75;;;;;;;;;;2278295;59;21678;-80
2022/09/21 11:57:35;;;;;;;0.68;0.47;;;;;;;;;;2511211;55;21111;-80
2022/09/21 12:00:14;;;;;;;0.47;0.47;;;;;;;;;;2278932;59;21156;-80
2022/09/21 12:02:52;;;;;;;0.52;0.43;;;;;;;;;;2279065;59;21073;-81
2022/09/21 12:05:23;;;;;;;1.20;0.85;;;;;;;;;;2278776;59;21616;-82
2022/09/21 12:07:56;;;;;;;0.95;0.70;;;;;;;;;;2511007;55;21617;-81
2022/09/21 12:10:38;;;;;;;0.73;0.60;;;;;;;;;;2278280;59;21231;-82
2022/09/21 12:13:08;;;;;;;0.50;0.50;;;;;;;;;;2508256;55;21514;-80
2022/09/21 12:15:39;;;;;;;1.60;0.50;;;;;;;;;;2277180;59;21209;-78
2022/09/21 12:18:09;;;;;;;1.83;0.70;;;;;;;;;;2278600;59;21535;-80
2022/09/21 12:20:40;;;;;;;0.47;0.40;;;;;;;;;;2276829;59;21587;-81
2022/09/21 12:23:10;;;;;;;0.93;0.52;;;;;;;;;;2278543;59;21081;-78
2022/09/21 12:25:40;;;;;;;1.05;0.60;;;;;;;;;;2278537;59;21144;-79
2022/09/21 12:28:12;;;;;;;0.52;0.50;;;;;;;;;;2278967;59;21681;-79
2022/09/21 12:33:21;;;;;;;1.17;0.60;;;;;;;;;;2503263;55;22570;-79
2022/09/21 12:35:51;;;;;;;2.95;0.60;;;;;;;;;;2525316;55;21086;-80
2022/09/21 12:38:21;;;;;;;1.62;0.47;;;;;;;;;;2291583;58;21095;-81
2022/09/21 12:40:52;;;;;;;0.70;0.50;;;;;;;;;;2291547;58;21106;-80
2022/09/21 12:43:28;;;;;;;1.48;0.60;;;;;;;;;;2290621;58;21062;-80
2022/09/21 12:45:58;;;;;;;0.68;0.40;;;;;;;;;;2291470;58;21066;-79
2022/09/21 12:48:30;;;;;;;0.77;0.55;;;;;;;;;;2290606;58;21673;-80
2022/09/21 12:51:01;;;;;;;0.60;0.45;;;;;;;;;;2525826;55;21102;-80
2022/09/21 12:53:30;;;;;;;2.05;0.50;;;;;;;;;;2526050;55;21051;-79
2022/09/21 12:56:02;;;;;;;0.88;0.55;;;;;;;;;;2524812;55;21115;-80
2022/09/21 12:58:35;;;;;;;0.77;0.45;;;;;;;;;;2526002;55;21689;-80
2022/09/21 13:01:06;;;;;;;0.93;0.35;;;;;;;;;;2526122;55;21075;-79
2022/09/21 13:03:36;;;;;;;1.20;0.50;;;;;;;;;;2291091;58;21079;-79
2022/09/21 13:06:11;;;;;;;0.73;0.35;;;;;;;;;;2525976;55;21138;-80
2022/09/21 13:08:41;;;;;;;0.57;0.50;;;;;;;;;;2525522;55;21131;-79
2022/09/21 13:11:09;;;;;;;0.40;0.30;;;;;;;;;;2290669;58;21070;-80
2022/09/21 13:13:38;;;;;;;0.60;0.32;;;;;;;;;;2291375;58;21071;-80
2022/09/21 13:16:06;;;;;;;0.65;0.40;;;;;;;;;;2290626;58;21107;-80
2022/09/21 13:18:35;;;;;;;1.75;0.65;;;;;;;;;;2525012;55;21143;-80
2022/09/21 13:21:02;;;;;;;0.35;0.35;;;;;;;;;;2524582;55;21067;-79
2022/09/21 13:23:35;;;;;;;0.30;0.30;;;;;;;;;;2523879;55;21246;-80
2022/09/21 13:26:07;;;;;;;0.30;0.30;;;;;;;;;;2290075;58;21051;-80
2022/09/21 13:28:41;;;;;;;0.40;0.30;;;;;;;;;;2525188;55;21082;-80
2022/09/21 13:31:31;;;;;;;0.95;0.20;;;;;;;;;;2290200;58;21134;-80
2022/09/21 13:34:19;;;;;;;0.93;0.57;;;;;;;;;;2273336;58;21106;-80
2022/09/21 13:37:13;;;;;;;0.93;0.50;;;;;;;;;;2524841;55;21460;-80
2022/09/21 13:39:43;;;;;;;0.90;0.70;;;;;;;;;;2290182;58;21035;-80
2022/09/21 13:42:42;;;;;;;0.80;0.57;;;;;;;;;;2475891;55;21116;-79
2022/09/21 13:45:43;;;;;;;0.82;0.60;;;;;;;;;;2228213;58;21021;-79
2022/09/21 13:48:18;;;;;;;0.50;0.50;;;;;;;;;;2528232;55;21059;-80
2022/09/21 13:50:45;;;;;;;0.45;0.45;;;;;;;;;;2527289;55;21055;-80
2022/09/21 13:53:19;;;;;;;0.43;0.40;;;;;;;;;;2527238;55;21075;-79
2022/09/21 13:58:29;;;;;;;0.88;0.60;;;;;;;;;;2570530;54;22098;-78
2022/09/21 14:00:58;;;;;;;2.12;0.30;;;;;;;;;;2560308;54;21046;-78
2022/09/21 14:03:27;;;;;;;3.37;1.37;;;;;;;;;;2559945;54;21514;-78
2022/09/21 14:05:55;;;;;;;1.12;0.62;;;;;;;;;;2559623;54;21508;-78
2022/09/21 14:08:26;;;;;;;1.23;0.43;;;;;;;;;;2319776;58;21027;-78
2022/09/21 14:10:56;;;;;;;3.58;0.73;;;;;;;;;;2560243;53;21577;-78
2022/09/21 14:13:27;;;;;;;0.50;0.50;;;;;;;;;;2318108;58;21039;-77
2022/09/21 14:15:54;;;;;;;0.32;0.32;;;;;;;;;;2559950;54;21576;-78
2022/09/21 14:21:09;;;;;;;1.33;0.52;;;;;;;;;;2604857;53;22102;-78
2022/09/21 14:23:36;;;;;;;0.52;0.35;;;;;;;;;;2346739;57;21678;-78
2022/09/21 14:26:19;;;;;;;2.37;0.95;;;;;;;;;;2346840;57;21626;-78
2022/09/21 14:28:50;;;;;;;1.10;0.40;;;;;;;;;;2360591;56;21058;-78
2022/09/21 14:31:19;;;;;;;0.50;0.50;;;;;;;;;;2372285;56;21040;-78
2022/09/21 14:33:48;;;;;;;1.62;0.45;;;;;;;;;;2626482;52;21129;-78
2022/09/21 14:36:19;;;;;;;0.62;0.57;;;;;;;;;;2373938;56;21042;-78
2022/09/21 14:38:50;;;;;;;1.67;0.50;;;;;;;;;;2374585;56;21051;-78
2022/09/21 14:41:19;;;;;;;0.35;0.30;;;;;;;;;;2628028;52;21154;-77
2022/09/21 14:43:50;;;;;;;0.43;0.43;;;;;;;;;;2628400;52;21115;-77
2022/09/21 14:46:37;;;;;;;1.73;0.50;;;;;;;;;;2626164;52;21036;-77
2022/09/21 14:49:18;;;;;;;0.88;0.68;;;;;;;;;;2374414;56;21518;-78
2022/09/21 14:51:50;;;;;;;0.47;0.40;;;;;;;;;;2374724;56;21058;-77
2022/09/21 14:54:27;;;;;;;0.98;0.75;;;;;;;;;;2374045;56;21067;-78
2022/09/21 14:57:00;;;;;;;1.85;0.60;;;;;;;;;;2373935;56;21011;-77
2022/09/21 14:59:46;;;;;;;0.93;0.57;;;;;;;;;;2627695;52;21596;-78
2022/09/21 15:02:18;;;;;;;0.75;0.40;;;;;;;;;;2374679;56;21052;-78
2022/09/21 15:04:50;;;;;;;0.93;0.50;;;;;;;;;;2374844;56;21063;-79
2022/09/21 15:13:19;;;;;;;0.98;0.60;;;;;;;;;;2376633;56;21031;-79
2022/09/21 15:15:50;;;;;;;1.95;0.50;;;;;;;;;;2375107;56;21141;-78
2022/09/21 15:18:18;;;;;;;0.50;0.40;;;;;;;;;;2628773;52;21171;-78
2022/09/21 15:20:54;;;;;;;0.47;0.35;;;;;;;;;;2630357;52;21071;-78